sensor_id;sensor_type;location;lat;lon;timestamp;pressure;altitude;pressure_sealevel;temperature;humidity
44001;BME280;29660;42.892;24.710;2023-02-28T04:27:32;97603.41;;;5.47;100.00
44001;BME280;29660;42.892;24.710;2023-02-28T04:32:55;97469.00;;;4.64;100.00
44001;BME280;29660;42.892;24.710;2023-02-28T04:38:17;97482.75;;;4.66;100.00
44001;BME280;29660;42.892;24.710;2023-02-28T04:43:41;97644.00;;;5.69;100.00
44001;BME280;29660;42.892;24.710;2023-02-28T04:49:03;97699.25;;;5.94;100.00
44001;BME280;29660;42.892;24.710;2023-02-28T04:54:26;97424.47;;;4.28;100.00
44001;BME280;29660;42.892;24.710;2023-02-28T04:59:50;97678.28;;;5.93;100.00
44001;BME280;29660;42.892;24.710;2023-02-28T05:05:13;97711.63;;;6.05;100.00
44001;BME280;29660;42.892;24.710;2023-02-28T05:10:40;97709.84;;;6.11;100.00
44001;BME280;29660;42.892;24.710;2023-02-28T05:16:03;97551.91;;;5.21;100.00
44001;BME280;29660;42.892;24.710;2023-02-28T05:26:53;97466.06;;;4.49;100.00
44001;BME280;29660;42.892;24.710;2023-02-28T05:32:16;97726.06;;;6.14;100.00
44001;BME280;29660;42.892;24.710;2023-02-28T05:37:39;97748.28;;;6.30;100.00
44001;BME280;29660;42.892;24.710;2023-02-28T05:43:02;97719.78;;;6.21;100.00
44001;BME280;29660;42.892;24.710;2023-02-28T05:48:25;97751.75;;;6.31;100.00
44001;BME280;29660;42.892;24.710;2023-02-28T05:53:49;97399.06;;;4.10;100.00
44001;BME280;29660;42.892;24.710;2023-02-28T05:59:13;97736.81;;;6.25;100.00
44001;BME280;29660;42.892;24.710;2023-02-28T06:04:35;97740.41;;;6.35;100.00
44001;BME280;29660;42.892;24.710;2023-02-28T06:09:59;97756.56;;;6.17;100.00
44001;BME280;29660;42.892;24.710;2023-02-28T06:15:21;97728.78;;;6.20;100.00
44001;BME280;29660;42.892;24.710;2023-02-28T06:20:44;97703.75;;;6.10;100.00
44001;BME280;29660;42.892;24.710;2023-02-28T06:26:16;97769.56;;;6.52;100.00
44001;BME280;29660;42.892;24.710;2023-02-28T06:31:40;97742.44;;;6.45;100.00
44001;BME280;29660;42.892;24.710;2023-02-28T06:37:02;97731.97;;;6.55;100.00
44001;BME280;29660;42.892;24.710;2023-02-28T06:42:26;97405.41;;;4.54;100.00
44001;BME280;29660;42.892;24.710;2023-02-28T06:47:50;97771.13;;;6.87;100.00
44001;BME280;29660;42.892;24.710;2023-02-28T06:53:14;97429.94;;;4.66;100.00
44001;BME280;29660;42.892;24.710;2023-02-28T06:58:38;97763.28;;;6.92;100.00
44001;BME280;29660;42.892;24.710;2023-02-28T07:04:01;97470.53;;;5.23;100.00
44001;BME280;29660;42.892;24.710;2023-02-28T07:09:24;97775.13;;;7.06;100.00
44001;BME280;29660;42.892;24.710;2023-02-28T07:14:53;97745.78;;;6.74;100.00
44001;BME280;29660;42.892;24.710;2023-02-28T07:20:18;97484.22;;;5.20;100.00
44001;BME280;29660;42.892;24.710;2023-02-28T07:25:42;97504.97;;;5.45;100.00
44001;BME280;29660;42.892;24.710;2023-02-28T07:31:05;97454.56;;;5.17;100.00
44001;BME280;29660;42.892;24.710;2023-02-28T07:36:29;97789.66;;;7.21;100.00
44001;BME280;29660;42.892;24.710;2023-02-28T07:41:51;97522.75;;;5.49;100.00
44001;BME280;29660;42.892;24.710;2023-02-28T07:47:20;97527.31;;;5.37;100.00
44001;BME280;29660;42.892;24.710;2023-02-28T07:52:43;97511.19;;;5.22;100.00
44001;BME280;29660;42.892;24.710;2023-02-28T07:58:06;97749.31;;;6.80;100.00
44001;BME280;29660;42.892;24.710;2023-02-28T08:03:29;97519.69;;;5.57;100.00
44001;BME280;29660;42.892;24.710;2023-02-28T08:08:52;97525.00;;;5.57;100.00
44001;BME280;29660;42.892;24.710;2023-02-28T08:14:15;97715.25;;;6.72;100.00
44001;BME280;29660;42.892;24.710;2023-02-28T08:19:38;97802.66;;;7.22;100.00
44001;BME280;29660;42.892;24.710;2023-02-28T08:25:01;97537.75;;;5.27;100.00
44001;BME280;29660;42.892;24.710;2023-02-28T08:30:24;97724.63;;;6.41;100.00
44001;BME280;29660;42.892;24.710;2023-02-28T08:35:47;97760.59;;;6.53;100.00
44001;BME280;29660;42.892;24.710;2023-02-28T08:41:11;97764.75;;;6.32;100.00
44001;BME280;29660;42.892;24.710;2023-02-28T08:46:35;97810.75;;;6.43;100.00
44001;BME280;29660;42.892;24.710;2023-02-28T08:51:57;97537.28;;;4.44;100.00
44001;BME280;29660;42.892;24.710;2023-02-28T08:57:21;97823.00;;;6.15;100.00
44001;BME280;29660;42.892;24.710;2023-02-28T09:02:43;97777.06;;;5.81;100.00
44001;BME280;29660;42.892;24.710;2023-02-28T09:08:06;97567.25;;;4.38;100.00
44001;BME280;29660;42.892;24.710;2023-02-28T09:13:29;97675.19;;;5.10;100.00
44001;BME280;29660;42.892;24.710;2023-02-28T09:18:52;97556.00;;;4.42;100.00
44001;BME280;29660;42.892;24.710;2023-02-28T09:24:15;97830.94;;;6.15;100.00
44001;BME280;29660;42.892;24.710;2023-02-28T09:29:38;97769.84;;;5.77;100.00
44001;BME280;29660;42.892;24.710;2023-02-28T09:35:00;97583.00;;;4.33;100.00
44001;BME280;29660;42.892;24.710;2023-02-28T09:40:25;97791.28;;;5.63;100.00
44001;BME280;29660;42.892;24.710;2023-02-28T09:51:58;97705.81;;;4.82;100.00
44001;BME280;29660;42.892;24.710;2023-02-28T09:57:38;97837.97;;;5.70;100.00
44001;BME280;29660;42.892;24.710;2023-02-28T10:03:28;97831.53;;;5.65;100.00
44001;BME280;29660;42.892;24.710;2023-02-28T10:09:02;97781.69;;;5.34;100.00
44001;BME280;29660;42.892;24.710;2023-02-28T10:14:28;97739.56;;;5.15;100.00
44001;BME280;29660;42.892;24.710;2023-02-28T10:20:17;97517.28;;;3.73;100.00
44001;BME280;29660;42.892;24.710;2023-02-28T10:25:46;97821.53;;;5.68;100.00
44001;BME280;29660;42.892;24.710;2023-02-28T10:31:19;97615.69;;;4.43;100.00
44001;BME280;29660;42.892;24.710;2023-02-28T10:36:41;97529.78;;;3.89;100.00
44001;BME280;29660;42.892;24.710;2023-02-28T10:42:19;97341.34;;;2.74;100.00
44001;BME280;29660;42.892;24.710;2023-02-28T10:47:56;97513.16;;;3.77;100.00
44001;BME280;29660;42.892;24.710;2023-02-28T11:04:44;97797.97;;;5.66;100.00
44001;BME280;29660;42.892;24.710;2023-02-28T11:10:19;97711.72;;;5.25;100.00
44001;BME280;29660;42.892;24.710;2023-02-28T11:15:53;97706.88;;;5.22;100.00
44001;BME280;29660;42.892;24.710;2023-02-28T11:21:27;97769.84;;;5.77;100.00
44001;BME280;29660;42.892;24.710;2023-02-28T11:26:51;97508.97;;;4.16;100.00
44001;BME280;29660;42.892;24.710;2023-02-28T11:37:37;97772.69;;;5.87;100.00
44001;BME280;29660;42.892;24.710;2023-02-28T11:43:06;97784.97;;;5.93;100.00
44001;BME280;29660;42.892;24.710;2023-02-28T11:48:45;97785.91;;;5.87;100.00
44001;BME280;29660;42.892;24.710;2023-02-28T12:00:36;97700.41;;;5.29;100.00
44001;BME280;29660;42.892;24.710;2023-02-28T12:23:23;97770.88;;;5.76;100.00
44001;BME280;29660;42.892;24.710;2023-02-28T12:29:04;97534.06;;;4.42;100.00
44001;BME280;29660;42.892;24.710;2023-02-28T12:34:45;97673.88;;;5.24;100.00
44001;BME280;29660;42.892;24.710;2023-02-28T12:40:17;97692.69;;;5.39;100.00
44001;BME280;29660;42.892;24.710;2023-02-28T12:45:59;97781.75;;;5.91;100.00
44001;BME280;29660;42.892;24.710;2023-02-28T12:51:24;97692.34;;;5.36;100.00
44001;BME280;29660;42.892;24.710;2023-02-28T13:13:29;97716.06;;;5.31;100.00
44001;BME280;29660;42.892;24.710;2023-02-28T13:19:08;97740.06;;;5.41;100.00
44001;BME280;29660;42.892;24.710;2023-02-28T13:29:56;97690.00;;;5.23;100.00
44001;BME280;29660;42.892;24.710;2023-02-28T13:35:35;97481.16;;;3.85;100.00
44001;BME280;29660;42.892;24.710;2023-02-28T13:52:20;97633.47;;;4.72;100.00
44001;BME280;29660;42.892;24.710;2023-02-28T13:57:53;97758.59;;;5.70;100.00
44001;BME280;29660;42.892;24.710;2023-02-28T14:09:18;97763.88;;;5.70;100.00
44001;BME280;29660;42.892;24.710;2023-02-28T14:14:54;97500.66;;;3.84;100.00
44001;BME280;29660;42.892;24.710;2023-02-28T14:20:17;97483.13;;;3.66;100.00
44001;BME280;29660;42.892;24.710;2023-02-28T14:31:58;97756.75;;;5.30;100.00
44001;BME280;29660;42.892;24.710;2023-02-28T14:37:33;97746.44;;;5.16;100.00
44001;BME280;29660;42.892;24.710;2023-02-28T14:43:00;97587.63;;;4.02;100.00
44001;BME280;29660;42.892;24.710;2023-02-28T14:48:23;97702.00;;;4.90;100.00
44001;BME280;29660;42.892;24.710;2023-02-28T14:53:57;97730.84;;;5.03;100.00
44001;BME280;29660;42.892;24.710;2023-02-28T14:59:29;97768.75;;;5.21;100.00
44001;BME280;29660;42.892;24.710;2023-02-28T15:05:16;97555.03;;;3.85;100.00
44001;BME280;29660;42.892;24.710;2023-02-28T15:10:44;97708.78;;;4.86;100.00
44001;BME280;29660;42.892;24.710;2023-02-28T15:16:37;97781.06;;;5.27;100.00
44001;BME280;29660;42.892;24.710;2023-02-28T15:22:13;97741.78;;;4.83;100.00
44001;BME280;29660;42.892;24.710;2023-02-28T15:27:44;97521.06;;;3.41;100.00
44001;BME280;29660;42.892;24.710;2023-02-28T15:38:35;97675.53;;;4.38;100.00
44001;BME280;29660;42.892;24.710;2023-02-28T15:44:24;97753.38;;;4.71;100.00
44001;BME280;29660;42.892;24.710;2023-02-28T15:49:51;97542.47;;;3.33;100.00
44001;BME280;29660;42.892;24.710;2023-02-28T15:55:23;97605.81;;;3.68;100.00
44001;BME280;29660;42.892;24.710;2023-02-28T16:01:16;97794.16;;;4.75;100.00
44001;BME280;29660;42.892;24.710;2023-02-28T16:06:40;97831.53;;;4.90;100.00
44001;BME280;29660;42.892;24.710;2023-02-28T16:12:08;97819.25;;;4.84;100.00
44001;BME280;29660;42.892;24.710;2023-02-28T16:17:38;97577.34;;;3.35;100.00
44001;BME280;29660;42.892;24.710;2023-02-28T16:23:00;97503.78;;;2.92;100.00
44001;BME280;29660;42.892;24.710;2023-02-28T16:28:29;97460.97;;;2.66;100.00
44001;BME280;29660;42.892;24.710;2023-02-28T16:33:52;97757.06;;;4.46;100.00
44001;BME280;29660;42.892;24.710;2023-02-28T16:39:14;97799.66;;;4.50;100.00
44001;BME280;29660;42.892;24.710;2023-02-28T16:44:37;97555.91;;;3.02;100.00
44001;BME280;29660;42.892;24.710;2023-02-28T16:49:59;97817.81;;;4.58;100.00
44001;BME280;29660;42.892;24.710;2023-02-28T16:55:25;97791.50;;;4.51;100.00
44001;BME280;29660;42.892;24.710;2023-02-28T17:00:48;97718.78;;;4.02;100.00
44001;BME280;29660;42.892;24.710;2023-02-28T17:06:22;97539.50;;;2.88;100.00
44001;BME280;29660;42.892;24.710;2023-02-28T17:11:45;97561.31;;;2.95;100.00
44001;BME280;29660;42.892;24.710;2023-02-28T17:17:18;97756.31;;;4.15;100.00
44001;BME280;29660;42.892;24.710;2023-02-28T17:22:40;97650.16;;;3.48;100.00
44001;BME280;29660;42.892;24.710;2023-02-28T17:28:03;97563.41;;;2.86;100.00
44001;BME280;29660;42.892;24.710;2023-02-28T17:33:25;97866.19;;;4.58;100.00
44001;BME280;29660;42.892;24.710;2023-02-28T17:38:48;97812.16;;;4.42;100.00
44001;BME280;29660;42.892;24.710;2023-02-28T17:44:10;97803.44;;;4.42;100.00
44001;BME280;29660;42.892;24.710;2023-02-28T17:49:32;97823.47;;;4.61;100.00
44001;BME280;29660;42.892;24.710;2023-02-28T17:54:55;97824.88;;;4.76;100.00
44001;BME280;29660;42.892;24.710;2023-02-28T18:00:17;97751.66;;;4.29;100.00
44001;BME280;29660;42.892;24.710;2023-02-28T18:05:40;97597.97;;;3.27;100.00
44001;BME280;29660;42.892;24.710;2023-02-28T18:11:02;97807.25;;;4.58;100.00
44001;BME280;29660;42.892;24.710;2023-02-28T18:16:24;97800.47;;;4.50;100.00
44001;BME280;29660;42.892;24.710;2023-02-28T18:21:49;97473.31;;;2.54;100.00
44001;BME280;29660;42.892;24.710;2023-02-28T18:27:11;97550.56;;;3.08;100.00
44001;BME280;29660;42.892;24.710;2023-02-28T18:32:33;97525.66;;;2.92;100.00
44001;BME280;29660;42.892;24.710;2023-02-28T18:37:55;97808.75;;;4.65;100.00
44001;BME280;29660;42.892;24.710;2023-02-28T18:43:18;97522.59;;;2.95;100.00
44001;BME280;29660;42.892;24.710;2023-02-28T18:48:40;97749.38;;;4.45;100.00
44001;BME280;29660;42.892;24.710;2023-02-28T18:54:02;97815.53;;;4.73;100.00
44001;BME280;29660;42.892;24.710;2023-02-28T18:59:25;97793.72;;;4.66;100.00
44001;BME280;29660;42.892;24.710;2023-02-28T19:04:47;97805.53;;;4.63;100.00
44001;BME280;29660;42.892;24.710;2023-02-28T19:10:10;97768.19;;;4.36;100.00
44001;BME280;29660;42.892;24.710;2023-02-28T19:15:32;97758.53;;;4.30;100.00
44001;BME280;29660;42.892;24.710;2023-02-28T19:20:54;97798.75;;;4.56;100.00
44001;BME280;29660;42.892;24.710;2023-02-28T19:26:22;97667.28;;;3.69;100.00
44001;BME280;29660;42.892;24.710;2023-02-28T19:31:44;97578.28;;;2.99;100.00
44001;BME280;29660;42.892;24.710;2023-02-28T19:37:07;97816.97;;;4.34;100.00
44001;BME280;29660;42.892;24.710;2023-02-28T19:42:29;97845.69;;;4.42;100.00
44001;BME280;29660;42.892;24.710;2023-02-28T19:47:54;97781.16;;;3.96;100.00
44001;BME280;29660;42.892;24.710;2023-02-28T19:53:16;97838.66;;;4.36;100.00
44001;BME280;29660;42.892;24.710;2023-02-28T19:58:39;97859.31;;;4.27;100.00
44001;BME280;29660;42.892;24.710;2023-02-28T20:04:01;97525.72;;;2.26;100.00
44001;BME280;29660;42.892;24.710;2023-02-28T20:09:29;97601.44;;;2.60;100.00
44001;BME280;29660;42.892;24.710;2023-02-28T20:14:52;97814.75;;;3.89;100.00
44001;BME280;29660;42.892;24.710;2023-02-28T20:20:17;97766.47;;;3.58;100.00
44001;BME280;29660;42.892;24.710;2023-02-28T20:25:41;97560.72;;;2.26;100.00
44001;BME280;29660;42.892;24.710;2023-02-28T20:31:12;97837.44;;;4.08;100.00
44001;BME280;29660;42.892;24.710;2023-02-28T20:36:35;97640.91;;;2.79;100.00
44001;BME280;29660;42.892;24.710;2023-02-28T20:41:58;97519.50;;;2.02;100.00
44001;BME280;29660;42.892;24.710;2023-02-28T20:47:20;97844.34;;;4.09;100.00
44001;BME280;29660;42.892;24.710;2023-02-28T20:52:42;97774.81;;;3.74;100.00
44001;BME280;29660;42.892;24.710;2023-02-28T20:58:05;97506.41;;;2.13;100.00
44001;BME280;29660;42.892;24.710;2023-02-28T21:03:27;97817.59;;;4.06;100.00
44001;BME280;29660;42.892;24.710;2023-02-28T21:08:49;97842.88;;;4.13;100.00
44001;BME280;29660;42.892;24.710;2023-02-28T21:14:14;97315.50;;;1.02;100.00
44001;BME280;29660;42.892;24.710;2023-02-28T21:19:36;97769.25;;;3.93;100.00
44001;BME280;29660;42.892;24.710;2023-02-28T21:24:58;97810.44;;;4.25;100.00
44001;BME280;29660;42.892;24.710;2023-02-28T21:30:21;97524.75;;;2.38;100.00
44001;BME280;29660;42.892;24.710;2023-02-28T21:35:43;97827.50;;;4.22;100.00
44001;BME280;29660;42.892;24.710;2023-02-28T21:41:11;97822.91;;;4.17;100.00
44001;BME280;29660;42.892;24.710;2023-02-28T21:46:33;97546.47;;;2.52;100.00
44001;BME280;29660;42.892;24.710;2023-02-28T21:52:09;97511.00;;;2.36;100.00
44001;BME280;29660;42.892;24.710;2023-02-28T21:57:31;97555.41;;;2.63;100.00
44001;BME280;29660;42.892;24.710;2023-02-28T22:02:56;97750.47;;;3.72;100.00
44001;BME280;29660;42.892;24.710;2023-02-28T22:08:18;97811.19;;;4.13;100.00
44001;BME280;29660;42.892;24.710;2023-02-28T22:13:41;97778.31;;;3.98;100.00
44001;BME280;29660;42.892;24.710;2023-02-28T22:19:04;97532.44;;;2.40;100.00
44001;BME280;29660;42.892;24.710;2023-02-28T22:24:28;97529.63;;;2.35;100.00
44001;BME280;29660;42.892;24.710;2023-02-28T22:29:53;97523.56;;;2.34;100.00
44001;BME280;29660;42.892;24.710;2023-02-28T22:35:15;97828.19;;;4.17;100.00
44001;BME280;29660;42.892;24.710;2023-02-28T22:40:40;97581.38;;;2.59;100.00
44001;BME280;29660;42.892;24.710;2023-02-28T22:46:03;97735.19;;;3.62;100.00
44001;BME280;29660;42.892;24.710;2023-02-28T22:51:27;97662.84;;;3.09;100.00
44001;BME280;29660;42.892;24.710;2023-02-28T22:56:49;97534.47;;;2.38;100.00
44001;BME280;29660;42.892;24.710;2023-02-28T23:02:11;97799.91;;;4.06;100.00
44001;BME280;29660;42.892;24.710;2023-02-28T23:07:33;97567.59;;;2.64;100.00
44001;BME280;29660;42.892;24.710;2023-02-28T23:12:55;97749.47;;;3.84;100.00
44001;BME280;29660;42.892;24.710;2023-02-28T23:18:17;97349.25;;;1.42;100.00
44001;BME280;29660;42.892;24.710;2023-02-28T23:23:39;97500.47;;;2.36;100.00
44001;BME280;29660;42.892;24.710;2023-02-28T23:29:01;97580.31;;;2.97;100.00
44001;BME280;29660;42.892;24.710;2023-02-28T23:34:24;97703.56;;;3.74;100.00
44001;BME280;29660;42.892;24.710;2023-02-28T23:39:51;97672.22;;;3.65;100.00
44001;BME280;29660;42.892;24.710;2023-02-28T23:45:13;97778.28;;;4.39;100.00
44001;BME280;29660;42.892;24.710;2023-02-28T23:50:36;97533.31;;;2.94;100.00
44001;BME280;29660;42.892;24.710;2023-02-28T23:55:58;97590.72;;;3.34;100.00
